sensor_id;sensor_type;location;lat;lon;timestamp;pressure;altitude;pressure_sealevel;temperature;humidity
7297;BME280;40758;54.038;11.684;2024-02-26T00:00:56;100328.63;;;-1.40;100.00
7297;BME280;40758;54.038;11.684;2024-02-26T00:03:25;100318.22;;;-1.51;100.00
7297;BME280;40758;54.038;11.684;2024-02-26T00:05:51;100321.66;;;-1.58;100.00
7297;BME280;40758;54.038;11.684;2024-02-26T00:08:19;100332.63;;;-1.62;100.00
7297;BME280;40758;54.038;11.684;2024-02-26T00:10:46;100327.44;;;-1.63;100.00
7297;BME280;40758;54.038;11.684;2024-02-26T00:13:14;100330.09;;;-1.63;100.00
7297;BME280;40758;54.038;11.684;2024-02-26T00:15:40;100333.28;;;-1.59;100.00
7297;BME280;40758;54.038;11.684;2024-02-26T00:18:07;100341.50;;;-1.53;100.00
7297;BME280;40758;54.038;11.684;2024-02-26T00:20:34;100337.84;;;-1.52;100.00
7297;BME280;40758;54.038;11.684;2024-02-26T00:23:02;100347.16;;;-1.56;100.00
7297;BME280;40758;54.038;11.684;2024-02-26T00:25:34;100338.06;;;-1.63;100.00
7297;BME280;40758;54.038;11.684;2024-02-26T00:28:02;100344.00;;;-1.69;100.00
7297;BME280;40758;54.038;11.684;2024-02-26T00:30:29;100339.84;;;-1.72;100.00
7297;BME280;40758;54.038;11.684;2024-02-26T00:32:56;100347.88;;;-1.64;100.00
7297;BME280;40758;54.038;11.684;2024-02-26T00:35:24;100343.88;;;-1.50;100.00
7297;BME280;40758;54.038;11.684;2024-02-26T00:37:52;100336.31;;;-1.37;100.00
7297;BME280;40758;54.038;11.684;2024-02-26T00:40:20;100345.53;;;-1.31;100.00
7297;BME280;40758;54.038;11.684;2024-02-26T00:42:48;100350.69;;;-1.29;100.00
7297;BME280;40758;54.038;11.684;2024-02-26T00:45:16;100341.69;;;-1.28;100.00
7297;BME280;40758;54.038;11.684;2024-02-26T00:47:44;100340.56;;;-1.26;100.00
7297;BME280;40758;54.038;11.684;2024-02-26T00:50:12;100329.38;;;-1.29;100.00
7297;BME280;40758;54.038;11.684;2024-02-26T00:52:40;100340.28;;;-1.41;100.00
7297;BME280;40758;54.038;11.684;2024-02-26T00:55:07;100337.84;;;-1.52;100.00
7297;BME280;40758;54.038;11.684;2024-02-26T00:57:35;100341.88;;;-1.66;100.00
7297;BME280;40758;54.038;11.684;2024-02-26T01:00:01;100339.75;;;-1.80;100.00
7297;BME280;40758;54.038;11.684;2024-02-26T01:02:28;100343.00;;;-1.86;100.00
7297;BME280;40758;54.038;11.684;2024-02-26T01:04:56;100337.94;;;-1.79;100.00
7297;BME280;40758;54.038;11.684;2024-02-26T01:07:22;100345.69;;;-1.68;100.00
7297;BME280;40758;54.038;11.684;2024-02-26T01:09:49;100334.13;;;-1.59;100.00
7297;BME280;40758;54.038;11.684;2024-02-26T01:12:16;100346.31;;;-1.56;100.00
7297;BME280;40758;54.038;11.684;2024-02-26T01:14:43;100352.75;;;-1.59;100.00
7297;BME280;40758;54.038;11.684;2024-02-26T01:17:09;100355.66;;;-1.70;100.00
7297;BME280;40758;54.038;11.684;2024-02-26T01:19:36;100348.59;;;-1.79;100.00
7297;BME280;40758;54.038;11.684;2024-02-26T01:22:03;100341.88;;;-1.83;100.00
7297;BME280;40758;54.038;11.684;2024-02-26T01:24:31;100351.09;;;-1.78;100.00
7297;BME280;40758;54.038;11.684;2024-02-26T01:26:58;100349.88;;;-1.83;100.00
7297;BME280;40758;54.038;11.684;2024-02-26T01:29:25;100342.94;;;-1.94;100.00
7297;BME280;40758;54.038;11.684;2024-02-26T01:31:51;100337.81;;;-2.05;100.00
7297;BME280;40758;54.038;11.684;2024-02-26T01:34:18;100348.63;;;-2.07;100.00
7297;BME280;40758;54.038;11.684;2024-02-26T01:36:45;100353.84;;;-2.15;100.00
7297;BME280;40758;54.038;11.684;2024-02-26T01:39:13;100351.78;;;-2.21;100.00
7297;BME280;40758;54.038;11.684;2024-02-26T01:41:41;100353.91;;;-2.25;100.00
7297;BME280;40758;54.038;11.684;2024-02-26T01:44:11;100348.03;;;-2.28;100.00
7297;BME280;40758;54.038;11.684;2024-02-26T01:46:40;100356.84;;;-2.28;100.00
7297;BME280;40758;54.038;11.684;2024-02-26T01:49:08;100357.84;;;-2.29;100.00
7297;BME280;40758;54.038;11.684;2024-02-26T01:51:35;100344.97;;;-2.33;100.00
7297;BME280;40758;54.038;11.684;2024-02-26T01:54:03;100351.19;;;-2.43;100.00
7297;BME280;40758;54.038;11.684;2024-02-26T01:56:31;100351.78;;;-2.49;100.00
7297;BME280;40758;54.038;11.684;2024-02-26T01:58:58;100346.19;;;-2.55;100.00
7297;BME280;40758;54.038;11.684;2024-02-26T02:01:27;100345.00;;;-2.61;100.00
7297;BME280;40758;54.038;11.684;2024-02-26T02:03:56;100360.22;;;-2.63;100.00
7297;BME280;40758;54.038;11.684;2024-02-26T02:06:24;100357.72;;;-2.64;100.00
7297;BME280;40758;54.038;11.684;2024-02-26T02:08:51;100366.13;;;-2.69;100.00
7297;BME280;40758;54.038;11.684;2024-02-26T02:11:18;100365.56;;;-2.73;100.00
7297;BME280;40758;54.038;11.684;2024-02-26T02:13:45;100366.84;;;-2.77;100.00
7297;BME280;40758;54.038;11.684;2024-02-26T02:16:13;100368.38;;;-2.74;100.00
7297;BME280;40758;54.038;11.684;2024-02-26T02:18:39;100381.50;;;-2.73;100.00
7297;BME280;40758;54.038;11.684;2024-02-26T02:21:08;100384.03;;;-2.71;100.00
7297;BME280;40758;54.038;11.684;2024-02-26T02:23:35;100377.19;;;-2.74;100.00
7297;BME280;40758;54.038;11.684;2024-02-26T02:26:02;100375.94;;;-2.79;100.00
7297;BME280;40758;54.038;11.684;2024-02-26T02:28:30;100373.28;;;-2.79;100.00
7297;BME280;40758;54.038;11.684;2024-02-26T02:30:57;100379.59;;;-2.80;100.00
7297;BME280;40758;54.038;11.684;2024-02-26T02:33:25;100387.41;;;-2.79;100.00
7297;BME280;40758;54.038;11.684;2024-02-26T02:35:52;100389.22;;;-2.79;100.00
7297;BME280;40758;54.038;11.684;2024-02-26T02:38:21;100389.28;;;-2.89;100.00
7297;BME280;40758;54.038;11.684;2024-02-26T02:40:49;100392.78;;;-2.98;100.00
7297;BME280;40758;54.038;11.684;2024-02-26T02:43:16;100387.19;;;-3.05;100.00
7297;BME280;40758;54.038;11.684;2024-02-26T02:45:43;100399.22;;;-3.01;100.00
7297;BME280;40758;54.038;11.684;2024-02-26T02:48:11;100395.28;;;-2.97;100.00
7297;BME280;40758;54.038;11.684;2024-02-26T02:50:38;100395.00;;;-2.93;100.00
7297;BME280;40758;54.038;11.684;2024-02-26T02:53:05;100396.09;;;-2.96;100.00
7297;BME280;40758;54.038;11.684;2024-02-26T02:55:35;100393.91;;;-3.01;100.00
7297;BME280;40758;54.038;11.684;2024-02-26T02:58:01;100397.53;;;-3.02;100.00
7297;BME280;40758;54.038;11.684;2024-02-26T03:00:28;100394.31;;;-2.96;100.00
7297;BME280;40758;54.038;11.684;2024-02-26T03:02:55;100396.78;;;-2.84;100.00
7297;BME280;40758;54.038;11.684;2024-02-26T03:05:22;100401.09;;;-2.74;100.00
7297;BME280;40758;54.038;11.684;2024-02-26T03:07:48;100398.03;;;-2.69;100.00
7297;BME280;40758;54.038;11.684;2024-02-26T03:10:15;100391.19;;;-2.72;100.00
7297;BME280;40758;54.038;11.684;2024-02-26T03:12:43;100398.91;;;-2.78;100.00
7297;BME280;40758;54.038;11.684;2024-02-26T03:15:10;100393.59;;;-2.88;100.00
7297;BME280;40758;54.038;11.684;2024-02-26T03:17:38;100391.66;;;-2.96;100.00
7297;BME280;40758;54.038;11.684;2024-02-26T03:20:05;100393.34;;;-2.95;100.00
7297;BME280;40758;54.038;11.684;2024-02-26T03:22:32;100399.06;;;-2.99;100.00
7297;BME280;40758;54.038;11.684;2024-02-26T03:24:59;100395.44;;;-3.08;100.00
7297;BME280;40758;54.038;11.684;2024-02-26T03:27:25;100395.31;;;-3.16;100.00
7297;BME280;40758;54.038;11.684;2024-02-26T03:29:52;100400.78;;;-3.17;100.00
7297;BME280;40758;54.038;11.684;2024-02-26T03:32:19;100397.69;;;-3.13;100.00
7297;BME280;40758;54.038;11.684;2024-02-26T03:34:46;100396.31;;;-3.07;100.00
7297;BME280;40758;54.038;11.684;2024-02-26T03:37:13;100395.28;;;-2.97;100.00
7297;BME280;40758;54.038;11.684;2024-02-26T03:39:39;100395.84;;;-2.93;100.00
7297;BME280;40758;54.038;11.684;2024-02-26T03:42:06;100397.25;;;-2.99;100.00
7297;BME280;40758;54.038;11.684;2024-02-26T03:44:33;100401.72;;;-3.09;100.00
7297;BME280;40758;54.038;11.684;2024-02-26T03:47:00;100399.22;;;-3.20;100.00
7297;BME280;40758;54.038;11.684;2024-02-26T03:49:27;100405.94;;;-3.16;100.00
7297;BME280;40758;54.038;11.684;2024-02-26T03:51:54;100409.28;;;-3.04;100.00
7297;BME280;40758;54.038;11.684;2024-02-26T03:54:20;100407.88;;;-2.99;100.00
7297;BME280;40758;54.038;11.684;2024-02-26T03:56:47;100405.50;;;-3.02;100.00
7297;BME280;40758;54.038;11.684;2024-02-26T03:59:14;100407.19;;;-3.10;100.00
7297;BME280;40758;54.038;11.684;2024-02-26T04:01:50;100404.97;;;-3.25;100.00
7297;BME280;40758;54.038;11.684;2024-02-26T04:04:17;100415.28;;;-3.31;100.00
7297;BME280;40758;54.038;11.684;2024-02-26T04:06:47;100413.19;;;-3.37;100.00
7297;BME280;40758;54.038;11.684;2024-02-26T04:09:14;100415.59;;;-3.44;100.00
7297;BME280;40758;54.038;11.684;2024-02-26T04:11:41;100424.09;;;-3.50;100.00
7297;BME280;40758;54.038;11.684;2024-02-26T04:14:09;100426.06;;;-3.13;100.00
7297;BME280;40758;54.038;11.684;2024-02-26T04:16:38;100430.44;;;-2.56;100.00
7297;BME280;40758;54.038;11.684;2024-02-26T04:19:05;100426.22;;;-2.49;100.00
7297;BME280;40758;54.038;11.684;2024-02-26T04:21:34;100419.53;;;-2.53;100.00
7297;BME280;40758;54.038;11.684;2024-02-26T04:24:01;100426.69;;;-2.63;100.00
7297;BME280;40758;54.038;11.684;2024-02-26T04:26:30;100431.31;;;-2.75;100.00
7297;BME280;40758;54.038;11.684;2024-02-26T04:28:56;100439.19;;;-2.83;100.00
7297;BME280;40758;54.038;11.684;2024-02-26T04:31:23;100435.13;;;-2.87;100.00
7297;BME280;40758;54.038;11.684;2024-02-26T04:33:50;100434.97;;;-2.85;100.00
7297;BME280;40758;54.038;11.684;2024-02-26T04:36:17;100435.13;;;-2.87;100.00
7297;BME280;40758;54.038;11.684;2024-02-26T04:38:44;100439.75;;;-2.89;100.00
7297;BME280;40758;54.038;11.684;2024-02-26T04:41:11;100442.69;;;-2.92;100.00
7297;BME280;40758;54.038;11.684;2024-02-26T04:43:38;100442.00;;;-2.94;100.00
7297;BME280;40758;54.038;11.684;2024-02-26T04:46:11;100455.13;;;-2.92;100.00
7297;BME280;40758;54.038;11.684;2024-02-26T04:48:37;100455.97;;;-2.82;100.00
7297;BME280;40758;54.038;11.684;2024-02-26T04:51:08;100461.41;;;-2.74;100.00
7297;BME280;40758;54.038;11.684;2024-02-26T04:53:35;100463.91;;;-2.73;100.00
7297;BME280;40758;54.038;11.684;2024-02-26T04:56:02;100457.22;;;-2.77;100.00
7297;BME280;40758;54.038;11.684;2024-02-26T04:58:29;100460.44;;;-2.83;100.00
7297;BME280;40758;54.038;11.684;2024-02-26T05:00:55;100457.53;;;-2.89;100.00
7297;BME280;40758;54.038;11.684;2024-02-26T05:03:23;100468.41;;;-2.92;100.00
7297;BME280;40758;54.038;11.684;2024-02-26T05:05:49;100467.88;;;-3.06;100.00
7297;BME280;40758;54.038;11.684;2024-02-26T05:08:16;100463.22;;;-3.13;100.00
7297;BME280;40758;54.038;11.684;2024-02-26T05:10:45;100475.00;;;-3.16;100.00
7297;BME280;40758;54.038;11.684;2024-02-26T05:13:12;100479.16;;;-3.13;100.00
7297;BME280;40758;54.038;11.684;2024-02-26T05:15:40;100481.00;;;-3.14;100.00
7297;BME280;40758;54.038;11.684;2024-02-26T05:18:07;100483.22;;;-3.19;100.00
7297;BME280;40758;54.038;11.684;2024-02-26T05:20:34;100490.78;;;-3.24;100.00
7297;BME280;40758;54.038;11.684;2024-02-26T05:23:02;100499.59;;;-3.24;100.00
7297;BME280;40758;54.038;11.684;2024-02-26T05:25:32;100494.97;;;-3.22;100.00
7297;BME280;40758;54.038;11.684;2024-02-26T05:27:59;100502.53;;;-3.17;100.00
7297;BME280;40758;54.038;11.684;2024-02-26T05:30:26;100496.50;;;-3.19;100.00
7297;BME280;40758;54.038;11.684;2024-02-26T05:32:55;100511.91;;;-3.23;100.00
7297;BME280;40758;54.038;11.684;2024-02-26T05:35:21;100514.41;;;-3.21;100.00
7297;BME280;40758;54.038;11.684;2024-02-26T05:37:48;100518.47;;;-3.17;100.00
7297;BME280;40758;54.038;11.684;2024-02-26T05:40:15;100512.59;;;-3.11;100.00
7297;BME280;40758;54.038;11.684;2024-02-26T05:42:41;100521.84;;;-3.05;100.00
7297;BME280;40758;54.038;11.684;2024-02-26T05:45:10;100521.53;;;-3.02;100.00
7297;BME280;40758;54.038;11.684;2024-02-26T05:47:37;100533.28;;;-3.05;100.00
7297;BME280;40758;54.038;11.684;2024-02-26T05:50:12;100524.22;;;-3.12;100.00
7297;BME280;40758;54.038;11.684;2024-02-26T05:52:39;100530.19;;;-3.19;100.00
7297;BME280;40758;54.038;11.684;2024-02-26T05:55:07;100540.69;;;-3.18;100.00
7297;BME280;40758;54.038;11.684;2024-02-26T05:57:34;100533.41;;;-3.16;100.00
7297;BME280;40758;54.038;11.684;2024-02-26T06:00:01;100538.72;;;-3.16;100.00
7297;BME280;40758;54.038;11.684;2024-02-26T06:02:31;100535.66;;;-3.21;100.00
7297;BME280;40758;54.038;11.684;2024-02-26T06:04:58;100544.31;;;-3.29;100.00
7297;BME280;40758;54.038;11.684;2024-02-26T06:07:24;100549.19;;;-3.34;100.00
7297;BME280;40758;54.038;11.684;2024-02-26T06:09:51;100553.81;;;-3.36;100.00
7297;BME280;40758;54.038;11.684;2024-02-26T06:12:18;100558.00;;;-3.33;100.00
7297;BME280;40758;54.038;11.684;2024-02-26T06:14:45;100562.91;;;-3.29;100.00
7297;BME280;40758;54.038;11.684;2024-02-26T06:17:12;100573.66;;;-3.21;100.00
7297;BME280;40758;54.038;11.684;2024-02-26T06:19:39;100573.25;;;-3.16;100.00
7297;BME280;40758;54.038;11.684;2024-02-26T06:22:06;100573.41;;;-3.17;100.00
7297;BME280;40758;54.038;11.684;2024-02-26T06:24:33;100569.19;;;-3.20;100.00
7297;BME280;40758;54.038;11.684;2024-02-26T06:26:59;100567.66;;;-3.23;100.00
7297;BME280;40758;54.038;11.684;2024-02-26T06:29:26;100579.28;;;-3.24;100.00
7297;BME280;40758;54.038;11.684;2024-02-26T06:31:53;100587.09;;;-3.22;100.00
7297;BME280;40758;54.038;11.684;2024-02-26T06:34:19;100589.63;;;-3.11;100.00
7297;BME280;40758;54.038;11.684;2024-02-26T06:36:47;100587.69;;;-2.99;100.00
7297;BME280;40758;54.038;11.684;2024-02-26T06:39:13;100591.47;;;-2.92;100.00
7297;BME280;40758;54.038;11.684;2024-02-26T06:41:42;100602.38;;;-2.85;100.00
7297;BME280;40758;54.038;11.684;2024-02-26T06:44:09;100591.19;;;-2.79;100.00
7297;BME280;40758;54.038;11.684;2024-02-26T06:46:36;100600.31;;;-2.72;100.00
7297;BME280;40758;54.038;11.684;2024-02-26T06:49:03;100603.38;;;-2.67;100.00
7297;BME280;40758;54.038;11.684;2024-02-26T06:51:30;100603.09;;;-2.64;100.00
7297;BME280;40758;54.038;11.684;2024-02-26T06:53:57;100604.22;;;-2.57;100.00
7297;BME280;40758;54.038;11.684;2024-02-26T06:56:24;100609.81;;;-2.50;100.00
7297;BME280;40758;54.038;11.684;2024-02-26T06:58:51;100616.13;;;-2.42;100.00
7297;BME280;40758;54.038;11.684;2024-02-26T07:01:18;100610.94;;;-2.33;100.00
7297;BME280;40758;54.038;11.684;2024-02-26T07:03:44;100626.06;;;-2.24;100.00
7297;BME280;40758;54.038;11.684;2024-02-26T07:06:11;100628.81;;;-2.16;100.00
7297;BME280;40758;54.038;11.684;2024-02-26T07:08:40;100626.31;;;-2.08;100.00
7297;BME280;40758;54.038;11.684;2024-02-26T07:11:07;100628.94;;;-1.98;100.00
7297;BME280;40758;54.038;11.684;2024-02-26T07:13:35;100629.09;;;-1.90;100.00
7297;BME280;40758;54.038;11.684;2024-02-26T07:16:02;100633.41;;;-1.79;100.00
7297;BME280;40758;54.038;11.684;2024-02-26T07:18:29;100638.00;;;-1.72;100.00
7297;BME280;40758;54.038;11.684;2024-02-26T07:20:56;100643.31;;;-1.62;100.00
7297;BME280;40758;54.038;11.684;2024-02-26T07:23:22;100640.88;;;-1.55;100.00
7297;BME280;40758;54.038;11.684;2024-02-26T07:25:49;100641.66;;;-1.45;100.00
7297;BME280;40758;54.038;11.684;2024-02-26T07:28:19;100647.13;;;-1.37;100.00
7297;BME280;40758;54.038;11.684;2024-02-26T07:30:46;100640.06;;;-1.28;100.00
7297;BME280;40758;54.038;11.684;2024-02-26T07:33:12;100640.19;;;-1.20;100.00
7297;BME280;40758;54.038;11.684;2024-02-26T07:35:39;100640.44;;;-1.14;100.00
7297;BME280;40758;54.038;11.684;2024-02-26T07:38:06;100639.81;;;-1.08;100.00
7297;BME280;40758;54.038;11.684;2024-02-26T07:40:40;100643.41;;;-0.99;100.00
7297;BME280;40758;54.038;11.684;2024-02-26T07:43:24;100638.19;;;-0.91;100.00
7297;BME280;40758;54.038;11.684;2024-02-26T07:45:51;100635.59;;;-0.83;100.00
7297;BME280;40758;54.038;11.684;2024-02-26T07:48:17;100639.06;;;-0.72;100.00
7297;BME280;40758;54.038;11.684;2024-02-26T07:50:44;100640.00;;;-0.64;100.00
7297;BME280;40758;54.038;11.684;2024-02-26T07:53:11;100643.56;;;-0.55;100.00
7297;BME280;40758;54.038;11.684;2024-02-26T07:55:37;100640.97;;;-0.47;100.00
7297;BME280;40758;54.038;11.684;2024-02-26T07:58:04;100649.06;;;-0.39;100.00
7297;BME280;40758;54.038;11.684;2024-02-26T08:00:38;100647.28;;;-0.30;100.00
7297;BME280;40758;54.038;11.684;2024-02-26T08:03:04;100642.72;;;-0.20;100.00
7297;BME280;40758;54.038;11.684;2024-02-26T08:05:31;100644.59;;;-0.12;100.00
7297;BME280;40758;54.038;11.684;2024-02-26T08:07:58;100651.69;;;-0.03;100.00
7297;BME280;40758;54.038;11.684;2024-02-26T08:10:24;100650.78;;;0.06;100.00
7297;BME280;40758;54.038;11.684;2024-02-26T08:12:53;100650.81;;;0.14;100.00
7297;BME280;40758;54.038;11.684;2024-02-26T08:15:23;100658.88;;;0.22;100.00
7297;BME280;40758;54.038;11.684;2024-02-26T08:17:50;100664.47;;;0.29;100.00
7297;BME280;40758;54.038;11.684;2024-02-26T08:20:16;100664.66;;;0.36;100.00
7297;BME280;40758;54.038;11.684;2024-02-26T08:22:43;100672.06;;;0.42;100.00
7297;BME280;40758;54.038;11.684;2024-02-26T08:25:10;100670.09;;;0.52;100.00
7297;BME280;40758;54.038;11.684;2024-02-26T08:27:37;100674.66;;;0.60;100.00
7297;BME280;40758;54.038;11.684;2024-02-26T08:30:04;100672.19;;;0.66;100.00
7297;BME280;40758;54.038;11.684;2024-02-26T08:32:31;100671.25;;;0.75;100.00
7297;BME280;40758;54.038;11.684;2024-02-26T08:34:58;100686.16;;;0.86;100.00
7297;BME280;40758;54.038;11.684;2024-02-26T08:37:25;100685.88;;;0.97;100.00
7297;BME280;40758;54.038;11.684;2024-02-26T08:39:52;100686.78;;;1.14;100.00
7297;BME280;40758;54.038;11.684;2024-02-26T08:42:18;100685.66;;;1.33;100.00
7297;BME280;40758;54.038;11.684;2024-02-26T08:44:45;100687.41;;;1.58;100.00
7297;BME280;40758;54.038;11.684;2024-02-26T08:47:12;100685.59;;;1.83;100.00
7297;BME280;40758;54.038;11.684;2024-02-26T08:49:43;100685.59;;;2.08;100.00
7297;BME280;40758;54.038;11.684;2024-02-26T08:52:11;100693.28;;;2.35;100.00
7297;BME280;40758;54.038;11.684;2024-02-26T08:54:38;100693.09;;;2.61;100.00
7297;BME280;40758;54.038;11.684;2024-02-26T08:57:05;100697.56;;;2.85;100.00
7297;BME280;40758;54.038;11.684;2024-02-26T08:59:33;100699.00;;;3.04;100.00
7297;BME280;40758;54.038;11.684;2024-02-26T09:02:00;100706.28;;;3.27;100.00
7297;BME280;40758;54.038;11.684;2024-02-26T09:04:28;100702.34;;;3.45;100.00
7297;BME280;40758;54.038;11.684;2024-02-26T09:06:55;100695.34;;;3.67;100.00
7297;BME280;40758;54.038;11.684;2024-02-26T09:09:22;100702.09;;;3.86;100.00
7297;BME280;40758;54.038;11.684;2024-02-26T09:11:48;100693.91;;;4.03;100.00
7297;BME280;40758;54.038;11.684;2024-02-26T09:14:18;100697.50;;;4.18;100.00
7297;BME280;40758;54.038;11.684;2024-02-26T09:16:49;100694.38;;;4.29;100.00
7297;BME280;40758;54.038;11.684;2024-02-26T09:19:19;100699.97;;;4.42;100.00
7297;BME280;40758;54.038;11.684;2024-02-26T09:21:45;100700.38;;;4.69;100.00
7297;BME280;40758;54.038;11.684;2024-02-26T09:24:12;100698.53;;;5.14;100.00
7297;BME280;40758;54.038;11.684;2024-02-26T09:26:41;100704.28;;;5.61;100.00
7297;BME280;40758;54.038;11.684;2024-02-26T09:29:09;100706.56;;;6.16;100.00
7297;BME280;40758;54.038;11.684;2024-02-26T09:31:38;100707.53;;;6.57;100.00
7297;BME280;40758;54.038;11.684;2024-02-26T09:34:07;100710.25;;;6.92;100.00
7297;BME280;40758;54.038;11.684;2024-02-26T09:36:35;100710.78;;;7.09;100.00
7297;BME280;40758;54.038;11.684;2024-02-26T09:39:02;100706.69;;;7.19;100.00
7297;BME280;40758;54.038;11.684;2024-02-26T09:41:30;100703.41;;;7.31;100.00
7297;BME280;40758;54.038;11.684;2024-02-26T09:43:58;100707.94;;;7.30;100.00
7297;BME280;40758;54.038;11.684;2024-02-26T09:46:26;100709.00;;;7.36;100.00
7297;BME280;40758;54.038;11.684;2024-02-26T09:48:57;100714.06;;;7.45;100.00
7297;BME280;40758;54.038;11.684;2024-02-26T09:51:24;100707.44;;;7.55;100.00
7297;BME280;40758;54.038;11.684;2024-02-26T09:53:52;100716.03;;;7.71;100.00
7297;BME280;40758;54.038;11.684;2024-02-26T09:56:19;100708.78;;;7.85;100.00
7297;BME280;40758;54.038;11.684;2024-02-26T09:58:47;100707.16;;;8.04;100.00
7297;BME280;40758;54.038;11.684;2024-02-26T10:01:22;100711.34;;;8.26;100.00
7297;BME280;40758;54.038;11.684;2024-02-26T10:03:55;100713.25;;;8.46;100.00
7297;BME280;40758;54.038;11.684;2024-02-26T10:06:26;100705.75;;;8.61;100.00
7297;BME280;40758;54.038;11.684;2024-02-26T10:08:55;100709.94;;;8.70;100.00
7297;BME280;40758;54.038;11.684;2024-02-26T10:11:26;100713.69;;;8.76;100.00
7297;BME280;40758;54.038;11.684;2024-02-26T10:13:54;100712.41;;;8.72;100.00
7297;BME280;40758;54.038;11.684;2024-02-26T10:16:22;100719.06;;;8.83;100.00
7297;BME280;40758;54.038;11.684;2024-02-26T10:18:50;100717.78;;;8.92;100.00
7297;BME280;40758;54.038;11.684;2024-02-26T10:21:25;100726.50;;;9.20;100.00
7297;BME280;40758;54.038;11.684;2024-02-26T10:23:54;100723.91;;;9.52;100.00
7297;BME280;40758;54.038;11.684;2024-02-26T10:26:22;100712.91;;;9.78;100.00
7297;BME280;40758;54.038;11.684;2024-02-26T10:28:49;100714.03;;;10.02;100.00
7297;BME280;40758;54.038;11.684;2024-02-26T10:31:22;100710.34;;;10.22;100.00
7297;BME280;40758;54.038;11.684;2024-02-26T10:33:55;100711.63;;;10.51;100.00
7297;BME280;40758;54.038;11.684;2024-02-26T10:36:28;100710.88;;;10.87;100.00
7297;BME280;40758;54.038;11.684;2024-02-26T10:39:12;100717.16;;;11.24;100.00
7297;BME280;40758;54.038;11.684;2024-02-26T10:41:44;100724.56;;;11.54;100.00
7297;BME280;40758;54.038;11.684;2024-02-26T10:44:12;100728.31;;;11.71;100.00
7297;BME280;40758;54.038;11.684;2024-02-26T10:46:47;100721.50;;;11.80;100.00
7297;BME280;40758;54.038;11.684;2024-02-26T10:49:16;100724.22;;;11.80;100.00
7297;BME280;40758;54.038;11.684;2024-02-26T10:51:52;100728.88;;;11.61;100.00
7297;BME280;40758;54.038;11.684;2024-02-26T10:54:21;100729.56;;;11.38;100.00
7297;BME280;40758;54.038;11.684;2024-02-26T10:56:50;100737.84;;;11.07;100.00
7297;BME280;40758;54.038;11.684;2024-02-26T10:59:18;100732.84;;;10.85;100.00
7297;BME280;40758;54.038;11.684;2024-02-26T11:01:48;100741.38;;;10.64;100.00
7297;BME280;40758;54.038;11.684;2024-02-26T11:04:16;100743.91;;;10.59;100.00
7297;BME280;40758;54.038;11.684;2024-02-26T11:06:45;100749.53;;;10.64;100.00
7297;BME280;40758;54.038;11.684;2024-02-26T11:09:14;100754.84;;;10.77;100.00
7297;BME280;40758;54.038;11.684;2024-02-26T11:11:42;100745.59;;;10.85;100.00
7297;BME280;40758;54.038;11.684;2024-02-26T11:14:10;100750.28;;;10.96;100.00
7297;BME280;40758;54.038;11.684;2024-02-26T11:16:40;100742.50;;;11.00;100.00
7297;BME280;40758;54.038;11.684;2024-02-26T11:19:10;100748.19;;;10.98;100.00
7297;BME280;40758;54.038;11.684;2024-02-26T11:21:41;100742.97;;;10.97;100.00
7297;BME280;40758;54.038;11.684;2024-02-26T11:24:14;100751.41;;;10.88;100.00
7297;BME280;40758;54.038;11.684;2024-02-26T11:26:51;100742.47;;;10.81;100.00
7297;BME280;40758;54.038;11.684;2024-02-26T11:29:33;100745.63;;;10.78;100.00
7297;BME280;40758;54.038;11.684;2024-02-26T11:32:01;100739.00;;;10.74;100.00
7297;BME280;40758;54.038;11.684;2024-02-26T11:34:28;100734.00;;;10.71;100.00
7297;BME280;40758;54.038;11.684;2024-02-26T11:36:56;100742.31;;;10.76;100.00
7297;BME280;40758;54.038;11.684;2024-02-26T11:39:28;100732.03;;;10.78;100.00
7297;BME280;40758;54.038;11.684;2024-02-26T11:42:22;100722.16;;;10.84;100.00
7297;BME280;40758;54.038;11.684;2024-02-26T11:48:22;100732.16;;;10.90;100.00
7297;BME280;40758;54.038;11.684;2024-02-26T11:51:02;100735.72;;;10.90;100.00
7297;BME280;40758;54.038;11.684;2024-02-26T11:53:46;100737.38;;;10.91;100.00
7297;BME280;40758;54.038;11.684;2024-02-26T11:56:20;100738.91;;;11.06;100.00
7297;BME280;40758;54.038;11.684;2024-02-26T11:59:04;100733.63;;;11.29;100.00
7297;BME280;40758;54.038;11.684;2024-02-26T12:01:51;100742.84;;;11.46;100.00
7297;BME280;40758;54.038;11.684;2024-02-26T12:04:26;100744.81;;;11.58;100.00
7297;BME280;40758;54.038;11.684;2024-02-26T12:07:03;100736.94;;;11.68;100.00
7297;BME280;40758;54.038;11.684;2024-02-26T12:12:09;100733.91;;;11.58;100.00
7297;BME280;40758;54.038;11.684;2024-02-26T12:14:39;100739.22;;;11.34;100.00
7297;BME280;40758;54.038;11.684;2024-02-26T12:17:21;100739.66;;;11.13;100.00
7297;BME280;40758;54.038;11.684;2024-02-26T12:19:53;100744.69;;;10.91;100.00
7297;BME280;40758;54.038;11.684;2024-02-26T12:22:28;100737.94;;;10.75;100.00
7297;BME280;40758;54.038;11.684;2024-02-26T12:25:11;100748.47;;;10.65;100.00
7297;BME280;40758;54.038;11.684;2024-02-26T12:27:51;100745.38;;;10.61;100.00
7297;BME280;40758;54.038;11.684;2024-02-26T12:30:30;100759.56;;;10.63;100.00
7297;BME280;40758;54.038;11.684;2024-02-26T12:33:12;100749.19;;;10.54;100.00
7297;BME280;40758;54.038;11.684;2024-02-26T12:35:58;100750.72;;;10.43;100.00
7297;BME280;40758;54.038;11.684;2024-02-26T12:38:29;100759.53;;;10.38;100.00
7297;BME280;40758;54.038;11.684;2024-02-26T12:41:05;100763.56;;;10.29;100.00
7297;BME280;40758;54.038;11.684;2024-02-26T12:43:58;100765.28;;;10.17;100.00
7297;BME280;40758;54.038;11.684;2024-02-26T12:46:33;100770.78;;;10.04;100.00
7297;BME280;40758;54.038;11.684;2024-02-26T12:49:14;100767.94;;;9.85;100.00
7297;BME280;40758;54.038;11.684;2024-02-26T12:51:56;100774.06;;;9.74;100.00
7297;BME280;40758;54.038;11.684;2024-02-26T12:54:44;100784.09;;;9.60;100.00
7297;BME280;40758;54.038;11.684;2024-02-26T12:57:18;100786.66;;;9.49;100.00